sensor_id;sensor_type;location;lat;lon;timestamp;temperature;humidity
20102;DHT22;10210;52.284;9.892;2022-12-07T00:01:30;6.30;99.90
20102;DHT22;10210;52.284;9.892;2022-12-07T00:03:59;6.30;99.90
20102;DHT22;10210;52.284;9.892;2022-12-07T00:06:34;6.30;99.90
20102;DHT22;10210;52.284;9.892;2022-12-07T00:09:03;6.30;99.90
20102;DHT22;10210;52.284;9.892;2022-12-07T00:11:29;6.40;99.90
20102;DHT22;10210;52.284;9.892;2022-12-07T00:13:58;6.40;99.90
20102;DHT22;10210;52.284;9.892;2022-12-07T00:16:28;6.40;99.90
20102;DHT22;10210;52.284;9.892;2022-12-07T00:18:57;6.40;99.90
20102;DHT22;10210;52.284;9.892;2022-12-07T00:21:26;6.40;99.90
20102;DHT22;10210;52.284;9.892;2022-12-07T00:23:54;6.40;99.90
20102;DHT22;10210;52.284;9.892;2022-12-07T00:26:26;6.40;99.90
20102;DHT22;10210;52.284;9.892;2022-12-07T00:29:14;6.40;99.90
20102;DHT22;10210;52.284;9.892;2022-12-07T00:31:42;6.40;99.90
20102;DHT22;10210;52.284;9.892;2022-12-07T00:34:12;6.40;99.90
20102;DHT22;10210;52.284;9.892;2022-12-07T00:36:42;6.40;99.90
20102;DHT22;10210;52.284;9.892;2022-12-07T00:39:08;6.50;99.90
20102;DHT22;10210;52.284;9.892;2022-12-07T00:41:34;6.40;99.90
20102;DHT22;10210;52.284;9.892;2022-12-07T00:44:00;6.50;99.90
20102;DHT22;10210;52.284;9.892;2022-12-07T00:46:26;6.50;99.90
20102;DHT22;10210;52.284;9.892;2022-12-07T00:48:53;6.50;99.90
20102;DHT22;10210;52.284;9.892;2022-12-07T00:51:21;6.50;99.90
20102;DHT22;10210;52.284;9.892;2022-12-07T00:53:48;6.50;99.90
20102;DHT22;10210;52.284;9.892;2022-12-07T00:56:15;6.50;99.90
20102;DHT22;10210;52.284;9.892;2022-12-07T00:58:43;6.50;99.90
20102;DHT22;10210;52.284;9.892;2022-12-07T01:01:10;6.50;99.90
20102;DHT22;10210;52.284;9.892;2022-12-07T01:03:36;6.60;99.90
20102;DHT22;10210;52.284;9.892;2022-12-07T01:06:04;6.60;99.90
20102;DHT22;10210;52.284;9.892;2022-12-07T01:08:30;6.60;99.90
20102;DHT22;10210;52.284;9.892;2022-12-07T01:11:04;6.60;99.90
20102;DHT22;10210;52.284;9.892;2022-12-07T01:13:32;6.60;99.90
20102;DHT22;10210;52.284;9.892;2022-12-07T01:16:01;6.70;99.90
20102;DHT22;10210;52.284;9.892;2022-12-07T01:18:30;6.70;99.90
20102;DHT22;10210;52.284;9.892;2022-12-07T01:21:09;6.70;99.90
20102;DHT22;10210;52.284;9.892;2022-12-07T01:23:36;6.70;99.90
20102;DHT22;10210;52.284;9.892;2022-12-07T01:26:06;6.70;99.90
20102;DHT22;10210;52.284;9.892;2022-12-07T01:28:33;6.70;99.90
20102;DHT22;10210;52.284;9.892;2022-12-07T01:31:02;6.70;99.90
20102;DHT22;10210;52.284;9.892;2022-12-07T01:33:32;6.70;99.90
20102;DHT22;10210;52.284;9.892;2022-12-07T01:38:42;6.70;99.90
20102;DHT22;10210;52.284;9.892;2022-12-07T01:41:08;6.70;99.90
20102;DHT22;10210;52.284;9.892;2022-12-07T01:43:34;6.80;99.90
20102;DHT22;10210;52.284;9.892;2022-12-07T01:46:01;6.80;99.90
20102;DHT22;10210;52.284;9.892;2022-12-07T01:48:38;6.80;99.90
20102;DHT22;10210;52.284;9.892;2022-12-07T01:51:09;6.80;99.90
20102;DHT22;10210;52.284;9.892;2022-12-07T01:53:41;6.90;99.90
20102;DHT22;10210;52.284;9.892;2022-12-07T01:56:14;6.90;99.90
20102;DHT22;10210;52.284;9.892;2022-12-07T01:58:44;6.90;99.90
20102;DHT22;10210;52.284;9.892;2022-12-07T02:01:10;6.90;99.90
20102;DHT22;10210;52.284;9.892;2022-12-07T02:03:41;6.90;99.90
20102;DHT22;10210;52.284;9.892;2022-12-07T02:06:12;6.90;99.90
20102;DHT22;10210;52.284;9.892;2022-12-07T02:08:42;6.90;99.90
20102;DHT22;10210;52.284;9.892;2022-12-07T02:11:09;6.90;99.90
20102;DHT22;10210;52.284;9.892;2022-12-07T02:13:37;6.90;99.90
20102;DHT22;10210;52.284;9.892;2022-12-07T02:16:14;6.90;99.90
20102;DHT22;10210;52.284;9.892;2022-12-07T02:25:52;7.00;99.90
20102;DHT22;10210;52.284;9.892;2022-12-07T02:28:34;7.00;99.90
20102;DHT22;10210;52.284;9.892;2022-12-07T02:31:08;7.00;99.90
20102;DHT22;10210;52.284;9.892;2022-12-07T02:33:43;7.00;99.90
20102;DHT22;10210;52.284;9.892;2022-12-07T02:36:23;7.00;99.90
20102;DHT22;10210;52.284;9.892;2022-12-07T02:39:03;7.00;99.90
20102;DHT22;10210;52.284;9.892;2022-12-07T02:41:42;7.10;99.90
20102;DHT22;10210;52.284;9.892;2022-12-07T02:44:15;7.00;99.90
20102;DHT22;10210;52.284;9.892;2022-12-07T02:47:03;7.10;99.90
20102;DHT22;10210;52.284;9.892;2022-12-07T02:49:33;7.00;99.90
20102;DHT22;10210;52.284;9.892;2022-12-07T02:52:01;7.10;99.90
20102;DHT22;10210;52.284;9.892;2022-12-07T02:54:27;7.10;99.90
20102;DHT22;10210;52.284;9.892;2022-12-07T02:56:58;7.00;99.90
20102;DHT22;10210;52.284;9.892;2022-12-07T03:00:07;7.00;99.90
20102;DHT22;10210;52.284;9.892;2022-12-07T03:08:32;7.00;99.90
20102;DHT22;10210;52.284;9.892;2022-12-07T03:11:15;7.00;99.90
20102;DHT22;10210;52.284;9.892;2022-12-07T03:13:51;6.90;99.90
20102;DHT22;10210;52.284;9.892;2022-12-07T03:16:33;6.90;99.90
20102;DHT22;10210;52.284;9.892;2022-12-07T03:19:15;6.90;99.90
20102;DHT22;10210;52.284;9.892;2022-12-07T03:21:49;6.80;99.90
20102;DHT22;10210;52.284;9.892;2022-12-07T03:24:33;6.80;99.90
20102;DHT22;10210;52.284;9.892;2022-12-07T03:27:13;6.80;99.90
20102;DHT22;10210;52.284;9.892;2022-12-07T03:35:40;6.80;99.90
20102;DHT22;10210;52.284;9.892;2022-12-07T03:38:21;6.90;99.90
20102;DHT22;10210;52.284;9.892;2022-12-07T03:41:09;6.90;99.90
20102;DHT22;10210;52.284;9.892;2022-12-07T03:43:40;6.90;99.90
20102;DHT22;10210;52.284;9.892;2022-12-07T03:49:01;6.80;99.90
20102;DHT22;10210;52.284;9.892;2022-12-07T03:54:22;6.80;99.90
20102;DHT22;10210;52.284;9.892;2022-12-07T03:56:52;6.80;99.90
20102;DHT22;10210;52.284;9.892;2022-12-07T03:59:20;6.80;99.90
20102;DHT22;10210;52.284;9.892;2022-12-07T04:01:53;6.80;99.90
20102;DHT22;10210;52.284;9.892;2022-12-07T04:04:23;6.80;99.90
20102;DHT22;10210;52.284;9.892;2022-12-07T04:06:50;6.80;99.90
20102;DHT22;10210;52.284;9.892;2022-12-07T04:09:16;6.80;99.90
20102;DHT22;10210;52.284;9.892;2022-12-07T04:11:42;6.80;99.90
20102;DHT22;10210;52.284;9.892;2022-12-07T04:14:08;6.80;99.90
20102;DHT22;10210;52.284;9.892;2022-12-07T04:16:47;6.80;99.90
20102;DHT22;10210;52.284;9.892;2022-12-07T04:19:15;6.80;99.90
20102;DHT22;10210;52.284;9.892;2022-12-07T04:21:42;6.80;99.90
20102;DHT22;10210;52.284;9.892;2022-12-07T04:24:09;6.80;99.90
20102;DHT22;10210;52.284;9.892;2022-12-07T04:26:35;6.70;99.90
20102;DHT22;10210;52.284;9.892;2022-12-07T04:29:00;6.70;99.90
20102;DHT22;10210;52.284;9.892;2022-12-07T04:31:26;6.70;99.90
20102;DHT22;10210;52.284;9.892;2022-12-07T04:33:52;6.70;99.90
20102;DHT22;10210;52.284;9.892;2022-12-07T04:36:18;6.70;99.90
20102;DHT22;10210;52.284;9.892;2022-12-07T04:38:45;6.70;99.90
20102;DHT22;10210;52.284;9.892;2022-12-07T04:41:11;6.70;99.90
20102;DHT22;10210;52.284;9.892;2022-12-07T04:43:37;6.70;99.90
20102;DHT22;10210;52.284;9.892;2022-12-07T04:46:02;6.70;99.90
20102;DHT22;10210;52.284;9.892;2022-12-07T04:48:28;6.70;99.90
20102;DHT22;10210;52.284;9.892;2022-12-07T04:50:54;6.70;99.90
20102;DHT22;10210;52.284;9.892;2022-12-07T04:53:20;6.70;99.90
20102;DHT22;10210;52.284;9.892;2022-12-07T04:55:46;6.70;99.90
20102;DHT22;10210;52.284;9.892;2022-12-07T04:58:12;6.70;99.90
20102;DHT22;10210;52.284;9.892;2022-12-07T05:00:39;6.70;99.90
20102;DHT22;10210;52.284;9.892;2022-12-07T05:03:05;6.70;99.90
20102;DHT22;10210;52.284;9.892;2022-12-07T05:05:31;6.70;99.90
20102;DHT22;10210;52.284;9.892;2022-12-07T05:07:57;6.70;99.90
20102;DHT22;10210;52.284;9.892;2022-12-07T05:10:22;6.70;99.90
20102;DHT22;10210;52.284;9.892;2022-12-07T05:12:48;6.70;99.90
20102;DHT22;10210;52.284;9.892;2022-12-07T05:15:15;6.70;99.90
20102;DHT22;10210;52.284;9.892;2022-12-07T05:17:41;6.80;99.90
20102;DHT22;10210;52.284;9.892;2022-12-07T05:20:09;6.70;99.90
20102;DHT22;10210;52.284;9.892;2022-12-07T05:22:35;6.70;99.90
20102;DHT22;10210;52.284;9.892;2022-12-07T05:25:01;6.70;99.90
20102;DHT22;10210;52.284;9.892;2022-12-07T05:27:26;6.70;99.90
20102;DHT22;10210;52.284;9.892;2022-12-07T05:29:53;6.80;99.90
20102;DHT22;10210;52.284;9.892;2022-12-07T05:32:18;6.80;99.90
20102;DHT22;10210;52.284;9.892;2022-12-07T05:34:44;6.80;99.90
20102;DHT22;10210;52.284;9.892;2022-12-07T05:37:10;6.70;99.90
20102;DHT22;10210;52.284;9.892;2022-12-07T05:39:37;6.70;99.90
20102;DHT22;10210;52.284;9.892;2022-12-07T05:42:07;6.70;99.90
20102;DHT22;10210;52.284;9.892;2022-12-07T05:44:43;6.70;99.90
20102;DHT22;10210;52.284;9.892;2022-12-07T05:47:11;6.70;99.90
20102;DHT22;10210;52.284;9.892;2022-12-07T05:49:37;6.70;99.90
20102;DHT22;10210;52.284;9.892;2022-12-07T05:52:03;6.70;99.90
20102;DHT22;10210;52.284;9.892;2022-12-07T05:54:30;6.70;99.90
20102;DHT22;10210;52.284;9.892;2022-12-07T05:56:55;6.60;99.90
20102;DHT22;10210;52.284;9.892;2022-12-07T05:59:22;6.60;99.90
20102;DHT22;10210;52.284;9.892;2022-12-07T06:01:59;6.60;99.90
20102;DHT22;10210;52.284;9.892;2022-12-07T06:04:27;6.60;99.90
20102;DHT22;10210;52.284;9.892;2022-12-07T06:06:54;6.60;99.90
20102;DHT22;10210;52.284;9.892;2022-12-07T06:09:22;6.50;99.90
20102;DHT22;10210;52.284;9.892;2022-12-07T06:11:49;6.50;99.90
20102;DHT22;10210;52.284;9.892;2022-12-07T06:14:33;6.50;99.90
20102;DHT22;10210;52.284;9.892;2022-12-07T06:16:59;6.60;99.90
20102;DHT22;10210;52.284;9.892;2022-12-07T06:19:25;6.50;99.90
20102;DHT22;10210;52.284;9.892;2022-12-07T06:21:51;6.50;99.90
20102;DHT22;10210;52.284;9.892;2022-12-07T06:24:17;6.50;99.90
20102;DHT22;10210;52.284;9.892;2022-12-07T06:26:44;6.50;99.90
20102;DHT22;10210;52.284;9.892;2022-12-07T06:29:10;6.60;99.90
20102;DHT22;10210;52.284;9.892;2022-12-07T06:31:37;6.60;99.90
20102;DHT22;10210;52.284;9.892;2022-12-07T06:34:06;6.60;99.90
20102;DHT22;10210;52.284;9.892;2022-12-07T06:36:34;6.60;99.90
20102;DHT22;10210;52.284;9.892;2022-12-07T06:39:00;6.60;99.90
20102;DHT22;10210;52.284;9.892;2022-12-07T06:41:26;6.60;99.90
20102;DHT22;10210;52.284;9.892;2022-12-07T06:43:52;6.60;99.90
20102;DHT22;10210;52.284;9.892;2022-12-07T06:46:17;6.50;99.90
20102;DHT22;10210;52.284;9.892;2022-12-07T06:48:43;6.60;99.90
20102;DHT22;10210;52.284;9.892;2022-12-07T06:51:10;6.60;99.90
20102;DHT22;10210;52.284;9.892;2022-12-07T06:53:36;6.60;99.90
20102;DHT22;10210;52.284;9.892;2022-12-07T06:56:03;6.60;99.90
20102;DHT22;10210;52.284;9.892;2022-12-07T06:58:30;6.60;99.90
20102;DHT22;10210;52.284;9.892;2022-12-07T07:00:56;6.60;99.90
20102;DHT22;10210;52.284;9.892;2022-12-07T07:03:22;6.60;99.90
20102;DHT22;10210;52.284;9.892;2022-12-07T07:05:48;6.50;99.90
20102;DHT22;10210;52.284;9.892;2022-12-07T07:08:14;6.50;99.90
20102;DHT22;10210;52.284;9.892;2022-12-07T07:10:40;6.50;99.90
20102;DHT22;10210;52.284;9.892;2022-12-07T07:13:06;6.50;99.90
20102;DHT22;10210;52.284;9.892;2022-12-07T07:15:34;6.50;99.90
20102;DHT22;10210;52.284;9.892;2022-12-07T07:18:00;6.50;99.90
20102;DHT22;10210;52.284;9.892;2022-12-07T07:20:26;6.50;99.90
20102;DHT22;10210;52.284;9.892;2022-12-07T07:22:56;6.50;99.90
20102;DHT22;10210;52.284;9.892;2022-12-07T07:25:22;6.40;99.90
20102;DHT22;10210;52.284;9.892;2022-12-07T07:27:47;6.50;99.90
20102;DHT22;10210;52.284;9.892;2022-12-07T07:30:13;6.50;99.90
20102;DHT22;10210;52.284;9.892;2022-12-07T07:32:39;6.50;99.90
20102;DHT22;10210;52.284;9.892;2022-12-07T07:35:05;6.40;99.90
20102;DHT22;10210;52.284;9.892;2022-12-07T07:37:31;6.40;99.90
20102;DHT22;10210;52.284;9.892;2022-12-07T07:39:57;6.40;99.90
20102;DHT22;10210;52.284;9.892;2022-12-07T07:42:23;6.40;99.90
20102;DHT22;10210;52.284;9.892;2022-12-07T07:44:48;6.40;99.90
20102;DHT22;10210;52.284;9.892;2022-12-07T07:47:14;6.40;99.90
20102;DHT22;10210;52.284;9.892;2022-12-07T07:49:40;6.40;99.90
20102;DHT22;10210;52.284;9.892;2022-12-07T07:52:06;6.40;99.90
20102;DHT22;10210;52.284;9.892;2022-12-07T07:54:31;6.40;99.90
20102;DHT22;10210;52.284;9.892;2022-12-07T07:56:57;6.40;99.90
20102;DHT22;10210;52.284;9.892;2022-12-07T07:59:23;6.40;99.90
20102;DHT22;10210;52.284;9.892;2022-12-07T08:01:50;6.40;99.90
20102;DHT22;10210;52.284;9.892;2022-12-07T08:04:16;6.40;99.90
20102;DHT22;10210;52.284;9.892;2022-12-07T08:06:42;6.40;99.90
20102;DHT22;10210;52.284;9.892;2022-12-07T08:09:09;6.40;99.90
20102;DHT22;10210;52.284;9.892;2022-12-07T08:11:35;6.40;99.90
20102;DHT22;10210;52.284;9.892;2022-12-07T08:14:02;6.40;99.90
20102;DHT22;10210;52.284;9.892;2022-12-07T08:16:28;6.40;99.90
20102;DHT22;10210;52.284;9.892;2022-12-07T08:18:53;6.50;99.90
20102;DHT22;10210;52.284;9.892;2022-12-07T08:21:19;6.50;99.90
20102;DHT22;10210;52.284;9.892;2022-12-07T08:23:45;6.40;99.90
20102;DHT22;10210;52.284;9.892;2022-12-07T08:26:12;6.40;99.90
20102;DHT22;10210;52.284;9.892;2022-12-07T08:28:40;6.40;99.90
20102;DHT22;10210;52.284;9.892;2022-12-07T08:31:10;6.50;99.90
20102;DHT22;10210;52.284;9.892;2022-12-07T08:33:41;6.50;99.90
20102;DHT22;10210;52.284;9.892;2022-12-07T08:36:11;6.50;99.90
20102;DHT22;10210;52.284;9.892;2022-12-07T08:38:38;6.50;99.90
20102;DHT22;10210;52.284;9.892;2022-12-07T08:41:06;6.50;99.90
20102;DHT22;10210;52.284;9.892;2022-12-07T08:43:34;6.50;99.90
20102;DHT22;10210;52.284;9.892;2022-12-07T08:46:08;6.50;99.90
20102;DHT22;10210;52.284;9.892;2022-12-07T08:48:41;6.60;99.90
20102;DHT22;10210;52.284;9.892;2022-12-07T08:51:11;6.60;99.90
20102;DHT22;10210;52.284;9.892;2022-12-07T08:53:38;6.60;99.90
20102;DHT22;10210;52.284;9.892;2022-12-07T08:56:05;6.60;99.90
20102;DHT22;10210;52.284;9.892;2022-12-07T08:58:32;6.70;99.90
20102;DHT22;10210;52.284;9.892;2022-12-07T09:00:59;6.70;99.90
20102;DHT22;10210;52.284;9.892;2022-12-07T09:03:24;6.70;99.90
20102;DHT22;10210;52.284;9.892;2022-12-07T09:05:50;6.70;99.90
20102;DHT22;10210;52.284;9.892;2022-12-07T09:08:18;6.70;99.90
20102;DHT22;10210;52.284;9.892;2022-12-07T09:10:45;6.70;99.90
20102;DHT22;10210;52.284;9.892;2022-12-07T09:13:11;6.70;99.90
20102;DHT22;10210;52.284;9.892;2022-12-07T09:15:37;6.80;99.90
20102;DHT22;10210;52.284;9.892;2022-12-07T09:18:02;6.80;99.90
20102;DHT22;10210;52.284;9.892;2022-12-07T09:20:28;6.80;99.90
20102;DHT22;10210;52.284;9.892;2022-12-07T09:22:54;6.70;99.90
20102;DHT22;10210;52.284;9.892;2022-12-07T09:25:19;6.70;99.90
20102;DHT22;10210;52.284;9.892;2022-12-07T09:27:45;6.70;99.90
20102;DHT22;10210;52.284;9.892;2022-12-07T09:30:11;6.80;99.90
20102;DHT22;10210;52.284;9.892;2022-12-07T09:32:36;6.80;99.90
20102;DHT22;10210;52.284;9.892;2022-12-07T09:35:02;6.80;99.90
20102;DHT22;10210;52.284;9.892;2022-12-07T09:37:28;6.80;99.90
20102;DHT22;10210;52.284;9.892;2022-12-07T09:39:54;6.80;99.90
20102;DHT22;10210;52.284;9.892;2022-12-07T09:42:29;6.80;99.90
20102;DHT22;10210;52.284;9.892;2022-12-07T09:44:58;6.80;99.90
20102;DHT22;10210;52.284;9.892;2022-12-07T09:47:25;6.80;99.90
20102;DHT22;10210;52.284;9.892;2022-12-07T09:49:52;6.80;99.90
20102;DHT22;10210;52.284;9.892;2022-12-07T09:52:25;6.80;99.90
20102;DHT22;10210;52.284;9.892;2022-12-07T09:54:54;6.90;99.90
20102;DHT22;10210;52.284;9.892;2022-12-07T09:57:29;6.90;99.90
20102;DHT22;10210;52.284;9.892;2022-12-07T10:00:00;6.90;99.90
20102;DHT22;10210;52.284;9.892;2022-12-07T10:05:16;6.90;99.90
20102;DHT22;10210;52.284;9.892;2022-12-07T10:07:44;7.00;99.90
20102;DHT22;10210;52.284;9.892;2022-12-07T10:10:31;7.00;99.90
20102;DHT22;10210;52.284;9.892;2022-12-07T10:13:09;7.00;99.90
20102;DHT22;10210;52.284;9.892;2022-12-07T10:15:47;7.00;99.90
20102;DHT22;10210;52.284;9.892;2022-12-07T10:21:06;7.10;99.90
20102;DHT22;10210;52.284;9.892;2022-12-07T10:23:43;7.20;99.90
20102;DHT22;10210;52.284;9.892;2022-12-07T10:26:33;7.20;99.90
20102;DHT22;10210;52.284;9.892;2022-12-07T10:31:58;7.30;99.90
20102;DHT22;10210;52.284;9.892;2022-12-07T10:34:29;7.30;99.90
20102;DHT22;10210;52.284;9.892;2022-12-07T10:39:51;7.40;99.90
20102;DHT22;10210;52.284;9.892;2022-12-07T10:42:26;7.40;99.90
20102;DHT22;10210;52.284;9.892;2022-12-07T10:48:16;7.40;99.90
20102;DHT22;10210;52.284;9.892;2022-12-07T10:53:44;7.30;99.90
20102;DHT22;10210;52.284;9.892;2022-12-07T11:14:29;7.30;99.90
20102;DHT22;10210;52.284;9.892;2022-12-07T11:29:38;7.30;99.90
20102;DHT22;10210;52.284;9.892;2022-12-07T11:38:11;7.20;99.90
20102;DHT22;10210;52.284;9.892;2022-12-07T11:40:54;7.20;99.90
20102;DHT22;10210;52.284;9.892;2022-12-07T11:44:27;7.00;99.90
20102;DHT22;10210;52.284;9.892;2022-12-07T11:46:54;6.90;99.90
20102;DHT22;10210;52.284;9.892;2022-12-07T11:52:41;6.70;99.90
20102;DHT22;10210;52.284;9.892;2022-12-07T11:56:01;6.50;99.90
20102;DHT22;10210;52.284;9.892;2022-12-07T12:06:41;6.20;99.90
20102;DHT22;10210;52.284;9.892;2022-12-07T12:09:24;6.20;99.90
20102;DHT22;10210;52.284;9.892;2022-12-07T12:23:22;6.20;99.90
20102;DHT22;10210;52.284;9.892;2022-12-07T12:25:57;6.20;99.90
20102;DHT22;10210;52.284;9.892;2022-12-07T12:28:54;6.30;99.90
20102;DHT22;10210;52.284;9.892;2022-12-07T12:31:39;6.40;99.90
20102;DHT22;10210;52.284;9.892;2022-12-07T12:34:29;6.40;99.90
20102;DHT22;10210;52.284;9.892;2022-12-07T12:36:55;6.50;99.90
20102;DHT22;10210;52.284;9.892;2022-12-07T12:39:22;6.50;99.90
20102;DHT22;10210;52.284;9.892;2022-12-07T12:41:55;6.50;99.90
20102;DHT22;10210;52.284;9.892;2022-12-07T12:51:54;6.70;99.90
20102;DHT22;10210;52.284;9.892;2022-12-07T12:54:27;6.80;99.90
20102;DHT22;10210;52.284;9.892;2022-12-07T12:57:17;6.80;99.90
20102;DHT22;10210;52.284;9.892;2022-12-07T13:02:30;6.90;99.90
20102;DHT22;10210;52.284;9.892;2022-12-07T13:15:44;7.00;99.90
20102;DHT22;10210;52.284;9.892;2022-12-07T13:20:59;7.00;99.90
20102;DHT22;10210;52.284;9.892;2022-12-07T13:26:51;7.10;99.90
20102;DHT22;10210;52.284;9.892;2022-12-07T13:29:20;7.10;99.90
20102;DHT22;10210;52.284;9.892;2022-12-07T13:31:50;7.20;99.90
20102;DHT22;10210;52.284;9.892;2022-12-07T13:34:34;7.20;99.90
20102;DHT22;10210;52.284;9.892;2022-12-07T13:37:30;7.20;99.90
20102;DHT22;10210;52.284;9.892;2022-12-07T13:39:59;7.20;99.90
20102;DHT22;10210;52.284;9.892;2022-12-07T13:42:37;7.20;99.90
20102;DHT22;10210;52.284;9.892;2022-12-07T13:45:25;7.20;99.90
20102;DHT22;10210;52.284;9.892;2022-12-07T13:48:50;7.20;99.90
20102;DHT22;10210;52.284;9.892;2022-12-07T13:51:36;7.20;99.90
20102;DHT22;10210;52.284;9.892;2022-12-07T13:54:10;7.20;99.90
20102;DHT22;10210;52.284;9.892;2022-12-07T13:56:38;7.20;99.90
20102;DHT22;10210;52.284;9.892;2022-12-07T13:59:20;7.20;99.90
20102;DHT22;10210;52.284;9.892;2022-12-07T14:01:49;7.20;99.90
20102;DHT22;10210;52.284;9.892;2022-12-07T14:06:54;7.20;99.90
20102;DHT22;10210;52.284;9.892;2022-12-07T14:09:27;7.20;99.90
20102;DHT22;10210;52.284;9.892;2022-12-07T14:11:56;7.20;99.90
20102;DHT22;10210;52.284;9.892;2022-12-07T14:14:29;7.20;99.90
20102;DHT22;10210;52.284;9.892;2022-12-07T14:17:08;7.20;99.90
20102;DHT22;10210;52.284;9.892;2022-12-07T14:19:56;7.20;99.90
20102;DHT22;10210;52.284;9.892;2022-12-07T14:27:34;7.10;99.90
20102;DHT22;10210;52.284;9.892;2022-12-07T14:30:02;7.20;99.90
20102;DHT22;10210;52.284;9.892;2022-12-07T14:32:29;7.20;99.90
20102;DHT22;10210;52.284;9.892;2022-12-07T14:35:01;7.20;99.90
20102;DHT22;10210;52.284;9.892;2022-12-07T14:37:36;7.30;99.90
20102;DHT22;10210;52.284;9.892;2022-12-07T14:40:05;7.30;99.90
20102;DHT22;10210;52.284;9.892;2022-12-07T14:42:31;7.30;99.90
20102;DHT22;10210;52.284;9.892;2022-12-07T14:45:00;7.30;99.90
20102;DHT22;10210;52.284;9.892;2022-12-07T14:47:26;7.20;99.90
20102;DHT22;10210;52.284;9.892;2022-12-07T14:49:53;7.20;99.90
20102;DHT22;10210;52.284;9.892;2022-12-07T14:52:27;7.20;99.90
20102;DHT22;10210;52.284;9.892;2022-12-07T14:54:55;7.20;99.90
20102;DHT22;10210;52.284;9.892;2022-12-07T14:57:21;7.20;99.90
20102;DHT22;10210;52.284;9.892;2022-12-07T14:59:48;7.20;99.90
20102;DHT22;10210;52.284;9.892;2022-12-07T15:02:15;7.10;99.90
20102;DHT22;10210;52.284;9.892;2022-12-07T15:04:41;7.10;99.90
20102;DHT22;10210;52.284;9.892;2022-12-07T15:07:20;7.10;99.90
20102;DHT22;10210;52.284;9.892;2022-12-07T15:09:49;7.10;99.90
20102;DHT22;10210;52.284;9.892;2022-12-07T15:12:16;7.10;99.90
20102;DHT22;10210;52.284;9.892;2022-12-07T15:14:43;7.10;99.90
20102;DHT22;10210;52.284;9.892;2022-12-07T15:17:10;7.10;99.90
20102;DHT22;10210;52.284;9.892;2022-12-07T15:19:37;7.10;99.90
20102;DHT22;10210;52.284;9.892;2022-12-07T15:22:03;7.10;99.90
20102;DHT22;10210;52.284;9.892;2022-12-07T15:24:29;7.10;99.90
20102;DHT22;10210;52.284;9.892;2022-12-07T15:26:55;7.00;99.90
20102;DHT22;10210;52.284;9.892;2022-12-07T15:29:21;7.00;99.90
20102;DHT22;10210;52.284;9.892;2022-12-07T15:31:49;7.00;99.90
20102;DHT22;10210;52.284;9.892;2022-12-07T15:34:17;7.00;99.90
20102;DHT22;10210;52.284;9.892;2022-12-07T15:36:43;6.90;99.90
20102;DHT22;10210;52.284;9.892;2022-12-07T15:39:09;6.90;99.90
20102;DHT22;10210;52.284;9.892;2022-12-07T15:41:35;6.90;99.90
20102;DHT22;10210;52.284;9.892;2022-12-07T15:44:01;6.90;99.90
20102;DHT22;10210;52.284;9.892;2022-12-07T15:46:45;6.90;99.90
20102;DHT22;10210;52.284;9.892;2022-12-07T15:49:16;6.90;99.90
20102;DHT22;10210;52.284;9.892;2022-12-07T15:51:44;6.80;99.90
20102;DHT22;10210;52.284;9.892;2022-12-07T15:54:19;6.80;99.90
20102;DHT22;10210;52.284;9.892;2022-12-07T15:56:47;6.80;99.90
20102;DHT22;10210;52.284;9.892;2022-12-07T15:59:13;6.80;99.90
20102;DHT22;10210;52.284;9.892;2022-12-07T16:01:39;6.80;99.90
20102;DHT22;10210;52.284;9.892;2022-12-07T16:04:04;6.80;99.90
20102;DHT22;10210;52.284;9.892;2022-12-07T16:06:30;6.80;99.90
20102;DHT22;10210;52.284;9.892;2022-12-07T16:08:56;6.60;99.90
20102;DHT22;10210;52.284;9.892;2022-12-07T16:11:22;6.70;99.90
20102;DHT22;10210;52.284;9.892;2022-12-07T16:13:48;6.70;99.90
20102;DHT22;10210;52.284;9.892;2022-12-07T16:16:15;6.70;99.90
20102;DHT22;10210;52.284;9.892;2022-12-07T16:18:43;6.70;99.90
20102;DHT22;10210;52.284;9.892;2022-12-07T16:21:10;6.70;99.90
20102;DHT22;10210;52.284;9.892;2022-12-07T16:23:35;6.80;99.90
20102;DHT22;10210;52.284;9.892;2022-12-07T16:26:21;6.80;99.90
20102;DHT22;10210;52.284;9.892;2022-12-07T16:28:51;6.70;99.90
20102;DHT22;10210;52.284;9.892;2022-12-07T16:31:21;6.70;99.90
20102;DHT22;10210;52.284;9.892;2022-12-07T16:33:50;6.70;99.90
20102;DHT22;10210;52.284;9.892;2022-12-07T16:36:18;6.70;99.90
20102;DHT22;10210;52.284;9.892;2022-12-07T16:38:46;6.70;99.90
20102;DHT22;10210;52.284;9.892;2022-12-07T16:41:12;6.60;99.90
20102;DHT22;10210;52.284;9.892;2022-12-07T16:43:38;6.60;99.90
20102;DHT22;10210;52.284;9.892;2022-12-07T16:46:04;6.60;99.90
20102;DHT22;10210;52.284;9.892;2022-12-07T16:48:30;6.60;99.90
20102;DHT22;10210;52.284;9.892;2022-12-07T16:50:56;6.60;99.90
20102;DHT22;10210;52.284;9.892;2022-12-07T16:53:23;6.60;99.90
20102;DHT22;10210;52.284;9.892;2022-12-07T16:55:50;6.50;99.90
20102;DHT22;10210;52.284;9.892;2022-12-07T16:58:17;6.50;99.90
20102;DHT22;10210;52.284;9.892;2022-12-07T17:00:44;6.50;99.90
20102;DHT22;10210;52.284;9.892;2022-12-07T17:03:11;6.50;99.90
20102;DHT22;10210;52.284;9.892;2022-12-07T17:05:42;6.50;99.90
20102;DHT22;10210;52.284;9.892;2022-12-07T17:08:09;6.40;99.90
20102;DHT22;10210;52.284;9.892;2022-12-07T17:10:38;6.50;99.90
20102;DHT22;10210;52.284;9.892;2022-12-07T17:13:06;6.40;99.90
20102;DHT22;10210;52.284;9.892;2022-12-07T17:16:03;6.40;99.90
20102;DHT22;10210;52.284;9.892;2022-12-07T17:18:33;6.50;99.90
20102;DHT22;10210;52.284;9.892;2022-12-07T17:21:09;6.50;99.90
20102;DHT22;10210;52.284;9.892;2022-12-07T17:23:35;6.50;99.90
20102;DHT22;10210;52.284;9.892;2022-12-07T17:26:10;6.50;99.90
20102;DHT22;10210;52.284;9.892;2022-12-07T17:28:38;6.50;99.90
20102;DHT22;10210;52.284;9.892;2022-12-07T17:31:05;6.50;99.90
20102;DHT22;10210;52.284;9.892;2022-12-07T17:33:33;6.40;99.90
20102;DHT22;10210;52.284;9.892;2022-12-07T17:36:00;6.50;99.90
20102;DHT22;10210;52.284;9.892;2022-12-07T17:38:27;6.50;99.90
20102;DHT22;10210;52.284;9.892;2022-12-07T17:40:54;6.50;99.90
20102;DHT22;10210;52.284;9.892;2022-12-07T17:43:21;6.50;99.90
20102;DHT22;10210;52.284;9.892;2022-12-07T17:45:46;6.50;99.90
20102;DHT22;10210;52.284;9.892;2022-12-07T17:48:12;6.50;99.90
20102;DHT22;10210;52.284;9.892;2022-12-07T17:50:39;6.50;99.90
20102;DHT22;10210;52.284;9.892;2022-12-07T17:53:23;6.50;99.90
20102;DHT22;10210;52.284;9.892;2022-12-07T17:55:52;6.30;99.90
20102;DHT22;10210;52.284;9.892;2022-12-07T17:58:19;6.40;99.90
20102;DHT22;10210;52.284;9.892;2022-12-07T18:00:44;6.50;99.90
20102;DHT22;10210;52.284;9.892;2022-12-07T18:03:10;6.50;99.90
20102;DHT22;10210;52.284;9.892;2022-12-07T18:05:37;6.50;99.90
20102;DHT22;10210;52.284;9.892;2022-12-07T18:08:05;6.60;99.90
20102;DHT22;10210;52.284;9.892;2022-12-07T18:10:31;6.60;99.90
20102;DHT22;10210;52.284;9.892;2022-12-07T18:12:56;6.60;99.90
20102;DHT22;10210;52.284;9.892;2022-12-07T18:15:42;6.60;99.90
20102;DHT22;10210;52.284;9.892;2022-12-07T18:18:08;6.70;99.90
20102;DHT22;10210;52.284;9.892;2022-12-07T18:20:34;6.70;99.90
20102;DHT22;10210;52.284;9.892;2022-12-07T18:22:59;6.60;99.90